Millenium Air

Millenium Air Since 1998



 METAR AND TAF INFORMATION
METAR FOR LPMA
ADDS - METARS form results

(2016 UTC 22 October 2020)
Data provider http://aviationweather.gov/metar/data/
 
METAR text: LPMA 222000Z 36008KT 320V020 9999 FEW016 19/12 Q1021
Conditions at: LPMA (FUNCHAL/MADEIRA , PT) observed 2000 UTC 22 October 2020
Temperature: 19.0°C (66°F)
Dewpoint: 12.0°C (54°F) [RH = 64%]
Pressure (altimeter): 30.15 inches Hg (1021.0 mb)
Winds: from the N (360 degrees) at 9 MPH (8 knots; 4.1 m/s)
Visibility: 6 or more miles (10+ km)
Ceiling: at least 12,000 feet AGL
Clouds: few clouds at 1600 feet AGL
Weather: no significant weather observed at this time

METAR text: LPMA 221930Z 33007KT 290V010 9999 FEW016 19/12 Q1020
Conditions at: LPMA (FUNCHAL/MADEIRA , PT) observed 1930 UTC 22 October 2020
Temperature: 19.0°C (66°F)
Dewpoint: 12.0°C (54°F) [RH = 64%]
Pressure (altimeter): 30.12 inches Hg (1020.0 mb)
Winds: from the NNW (330 degrees) at 8 MPH (7 knots; 3.6 m/s)
Visibility: 6 or more miles (10+ km)
Ceiling: at least 12,000 feet AGL
Clouds: few clouds at 1600 feet AGL
Weather: no significant weather observed at this time

Forecast for: LPMA (FUNCHAL/MADEIRA , PT)
Text: TAF LPMA 221700Z 2218/2318 VRB05KT 9999 SCT016
Forecast period: 1800 UTC 22 October 2020 to 1800 UTC 23 October 2020
Forecast type: FROM: standard forecast or significant change
Winds: variable direction winds at 6 MPH (5 knots; 2.6 m/s)
Visibility: 6 or more miles (10+ km)
Ceiling: at least 12,000 feet AGL
Clouds: scattered clouds at 1600 feet AGL
Weather: no significant weather forecast for this period
Text: BECMG 2218/2221 34010KT
Forecast period: 1800 UTC 22 October 2020 to 0900 UTC 23 October 2020
Forecast type: BECOMING: Conditions expected to become as follows by 2100 UTC 22 October 2020
Winds: from the NNW (340 degrees) at 12 MPH (10 knots; 5.1 m/s)
Visibility: 6 or more miles (10+ km)
Ceiling: at least 12,000 feet AGL
Clouds: scattered clouds at 1600 feet AGL
Weather: no significant weather forecast for this period
Text: BECMG 2309/2312 02013KT
Forecast period: 0900 to 1800 UTC 23 October 2020
Forecast type: BECOMING: Conditions expected to become as follows by 1200 UTC 23 October 2020
Winds: from the NNE (20 degrees) at 15 MPH (13 knots; 6.7 m/s)
Visibility: 6 or more miles (10+ km)
Ceiling: at least 12,000 feet AGL
Clouds: scattered clouds at 1600 feet AGL
Weather: no significant weather forecast for this period

 AIRPORT MAP

 RUNWAY INFORMATION
Runway 05 Runway length 9110 ft Runway width 148 ft
Runway elevation 147 ft Runway displaced threshold 480 ft Runway heading 45
Runway 23 Runway length 9110 ft Runway width 148 ft
Runway elevation 192 ft Runway displaced threshold 490 ft Runway heading 225

 AIRPORT FREQUENCIES
Type APP Name APP Frequency 119.2 MHZ
Type TWR Name TWR Frequency 118.35 MHZ

 AIRPORT NEAR NAVIGATION AIDS
Type VOR-DME Name Madeira Frequency 112200 KHZ
Type NDB Name Madeira Frequency 318 KHZ